Kings Canyon National Pk, California
Current Conditions -  °F | °C
As of 11:56 AM on Friday 28 Nov 2014 (Local Time) from KBIH Reporting Station
Clear Clear  
Wind Chill: 57°   Ceiling: Unl
Heat Index: 57°   Visibility: 10mi
Dew Point: 15°   Wind: 6mph
Humidity: 19%   Direction: 150°SSE
Pressure: 30.01"   Gusts: NA
Location:  36.7872°N, 118.66°W
Report Text: KBIH 281956Z AUTO 15005KT 10SM CLR 14/M09 A3001 RMK AO2 SLP153 T01391094
Loading
Personal Weather Stations






























Interactive Weather Map New forecast layout! Learn more

10-Day Weather Forecast

Advertisements
Track Severe Weather on mobile